Aérodrome :
LOGIN :

S'inscrire | Disclaimer

   EN    FR    IT 

 










Légende :    VFR   VFR Marginal   IFR   IFR Intensif   IFR Très Intensif
Visi : 
Plafond : 
>= 8 km
>= 3000ft
5 à 8 km
1000 à 3000 ft
1500m à 5 km
500 à 1000 ft
800 à 1500m
200 à 500 ft
< 800m
< 200 ft
Symboles :   Orages  Brouillard  Fortes neiges  Fortes précipitations  Vent > 20 kt
SIGMETs :   Divers  Orages  Givrage  Turbulence  Onde Orograph.  Cendres Volcan.






- Altitude de l'aérodrome : 357 ft
- Code IATA : TUF


LFOT - Tours

DERNIER METAR :
  • 210300Z AUTO 28005KT 250V310 CAVOK 10/10 Q1013 TEMPO 3500 -RA BR BKN004

METARs EXPIRÉS :
  • 210230Z AUTO 30007KT CAVOK 11/10 Q1013 TEMPO 3500 -RA BR BKN004
  • 210200Z AUTO 31006KT 9999 BKN049 OVC062 10/10 Q1012 TEMPO 3500 -RA BR BKN004
  • 210130Z AUTO 32010KT 290V350 9999 SCT007 OVC064 10/09 Q1012 TEMPO 3500 -RA BR BKN004
  • 210100Z AUTO 29010KT 4500 -RA BR BKN005 BKN021 BKN033 11/10 Q1011 NOSIG
  • 210030Z AUTO 27008KT 4600 DZ BR OVC004 11/10 Q1011 TEMPO BKN006

TAF AMD TAF LFOT
Valide du 21 à 02h jusqu'au 22 à 00h UTC


210203Z 2102/2124 30010KT 9999 SCT007
PROB30
TEMPO 2102/2104 3500 -RA BR BKN004
BECMG 2106/2109 VRB05KT SCT020
PROB30
TEMPO 2120/2124 1500 BR



MET'MAP, la Météo Aéronautique d'un coup d'oeil ! - Copyright ORBIFLY Décembre 2007 - Disclaimer

ORBIFLY MET'MAP TEAM :

Programmation & Développement : Alexandra Zaïnal
Conception & Développement : Baudouin d'Aumeries
Co-Programmation & Développement : Marc-Olivier Méhu
Soutien technique & logistique : Manuel Goepfert

Contact : metmap@orbifly.com




SOURCES & CREDITS :

   NOAA